createdAt,value
2017-09-29T00:01:58.011Z,119.97
2017-09-29T00:07:01.259Z,106.00
2017-09-29T00:12:04.228Z,124.43
2017-09-29T00:17:06.904Z,118.63
2017-09-29T00:22:09.542Z,139.77
2017-09-29T00:27:12.239Z,149.53
2017-09-29T00:32:15.689Z,138.13
2017-09-29T00:37:18.410Z,167.90
2017-09-29T00:42:20.503Z,167.93
2017-09-29T00:47:23.230Z,181.20
2017-09-29T00:52:25.812Z,187.80
2017-09-29T00:57:28.551Z,137.43
2017-09-29T01:02:31.266Z,187.30
2017-09-29T01:07:34.027Z,142.73
2017-09-29T01:12:36.112Z,185.57
2017-09-29T01:17:38.854Z,226.40
2017-09-29T01:22:41.670Z,228.93
2017-09-29T01:27:44.175Z,167.83
2017-09-29T01:32:46.805Z,128.10
2017-09-29T01:37:49.483Z,152.20
2017-09-29T01:42:52.299Z,186.50
2017-09-29T01:47:55.151Z,170.07
2017-09-29T01:52:57.897Z,112.03
2017-09-29T01:58:00.669Z,120.90
2017-09-29T02:03:03.442Z,163.60
2017-09-29T02:08:06.328Z,215.17
2017-09-29T02:13:09.830Z,256.70
2017-09-29T02:18:12.699Z,180.83
2017-09-29T02:23:15.906Z,131.60
2017-09-29T02:28:18.586Z,102.97
2017-09-29T02:33:21.358Z,119.67
2017-09-29T02:38:23.710Z,119.77
2017-09-29T02:43:26.218Z,130.90
2017-09-29T02:48:29.437Z,125.37
2017-09-29T02:53:31.813Z,133.10
2017-09-29T02:58:37.473Z,111.30
2017-09-29T03:03:41.307Z,120.90
2017-09-29T03:08:44.156Z,106.83
2017-09-29T03:13:46.583Z,108.33
2017-09-29T03:18:49.087Z,103.23
2017-09-29T03:23:51.424Z,125.03
2017-09-29T03:28:54.944Z,125.57
2017-09-29T03:34:02.059Z,142.23
2017-09-29T03:39:05.070Z,156.80
2017-09-29T03:44:09.460Z,156.27
2017-09-29T03:49:12.011Z,141.63
2017-09-29T03:54:18.418Z,146.83
2017-09-29T03:59:22.902Z,176.03
2017-09-29T04:04:25.243Z,142.30
2017-09-29T04:09:27.979Z,138.17
2017-09-29T04:14:30.330Z,87.30
2017-09-29T04:19:33.791Z,121.80
2017-09-29T04:24:41.601Z,103.67
2017-09-29T04:29:49.218Z,105.70
2017-09-29T04:34:55.450Z,105.80
2017-09-29T04:40:00.542Z,105.43
2017-09-29T04:45:02.756Z,100.13
2017-09-29T04:50:05.310Z,137.20
2017-09-29T04:55:07.575Z,127.67
2017-09-29T05:00:10.167Z,115.30
2017-09-29T05:05:12.909Z,99.60
2017-09-29T05:10:15.449Z,85.23
2017-09-29T05:15:17.975Z,114.73
2017-09-29T05:20:21.389Z,135.77
2017-09-29T05:25:24.039Z,135.63
2017-09-29T05:30:26.457Z,94.17
2017-09-29T05:35:29.469Z,93.40
2017-09-29T05:40:32.023Z,77.90
2017-09-29T05:45:34.935Z,85.40
2017-09-29T05:50:37.536Z,76.43
2017-09-29T05:55:40.818Z,55.33
2017-09-29T06:00:43.132Z,88.00
2017-09-29T06:05:45.765Z,68.30
2017-09-29T06:10:48.383Z,86.47
2017-09-29T06:15:50.710Z,70.20
2017-09-29T06:20:52.980Z,70.57
2017-09-29T06:25:55.684Z,60.27
2017-09-29T06:30:59.129Z,50.87
2017-09-29T06:36:01.660Z,65.23
2017-09-29T06:41:04.360Z,67.97
2017-09-29T06:46:07.148Z,71.30
2017-09-29T06:51:10.437Z,53.90
2017-09-29T06:56:13.008Z,58.17
2017-09-29T07:01:15.660Z,69.63
2017-09-29T07:06:18.811Z,72.77
2017-09-29T07:11:21.521Z,97.43
2017-09-29T07:16:23.819Z,84.20
2017-09-29T07:21:26.317Z,89.67
2017-09-29T07:26:35.505Z,66.43
2017-09-29T07:31:40.238Z,67.97
2017-09-29T07:36:43.217Z,65.87
2017-09-29T07:41:45.722Z,68.47
2017-09-29T07:46:48.499Z,47.53
2017-09-29T07:51:53.759Z,61.43
2017-09-29T07:56:56.483Z,59.97
2017-09-29T08:01:59.339Z,56.57
2017-09-29T08:07:01.939Z,65.13
2017-09-29T08:12:05.270Z,60.57
2017-09-29T08:17:07.978Z,60.10
2017-09-29T08:22:10.569Z,67.93
2017-09-29T08:27:13.186Z,61.23
2017-09-29T08:32:15.636Z,67.63
2017-09-29T08:37:18.320Z,46.40
2017-09-29T08:42:21.013Z,45.53
2017-09-29T08:47:23.426Z,55.33
2017-09-29T08:52:26.860Z,35.03
2017-09-29T08:57:29.500Z,43.10
2017-09-29T09:02:32.111Z,45.27
2017-09-29T09:07:34.635Z,43.13
2017-09-29T09:12:37.200Z,47.53
2017-09-29T09:17:39.791Z,47.80
2017-09-29T09:22:42.369Z,45.33
2017-09-29T09:27:44.935Z,40.67
2017-09-29T09:32:48.279Z,41.93
2017-09-29T09:37:51.023Z,34.40
2017-09-29T09:42:53.606Z,35.10
2017-09-29T09:47:56.105Z,34.93
2017-09-29T09:52:59.388Z,46.47
2017-09-29T09:58:02.052Z,37.90
2017-09-29T10:03:04.340Z,36.63
2017-09-29T10:08:06.922Z,32.47
2017-09-29T10:13:09.462Z,36.90
2017-09-29T10:18:11.689Z,31.40
2017-09-29T10:23:14.242Z,35.53
2017-09-29T10:28:17.612Z,29.90
2017-09-29T10:33:20.231Z,36.17
2017-09-29T10:38:23.325Z,37.03
2017-09-29T10:43:26.538Z,38.43
2017-09-29T10:48:29.458Z,37.10
2017-09-29T10:53:31.962Z,39.87
2017-09-29T10:58:34.614Z,31.97
2017-09-29T11:03:38.064Z,31.13
2017-09-29T11:08:40.592Z,34.53
2017-09-29T11:13:43.323Z,37.77
2017-09-29T11:18:45.945Z,29.00
2017-09-29T11:23:49.641Z,31.87
2017-09-29T11:28:51.994Z,30.97
2017-09-29T11:33:55.641Z,35.03
2017-09-29T11:38:58.887Z,30.00
2017-09-29T11:44:02.047Z,32.10
2017-09-29T11:49:04.934Z,28.70
2017-09-29T11:54:08.339Z,30.23
2017-09-29T11:59:11.777Z,28.37
2017-09-29T12:04:14.068Z,28.03
2017-09-29T12:09:20.247Z,31.20
2017-09-29T12:14:25.752Z,24.43
2017-09-29T12:19:28.383Z,29.43
2017-09-29T12:24:30.971Z,20.53
2017-09-29T12:29:33.448Z,18.10
2017-09-29T12:34:36.100Z,18.03
2017-09-29T12:39:40.109Z,21.57
2017-09-29T12:44:42.792Z,16.00
2017-09-29T12:49:45.125Z,18.23
2017-09-29T12:54:47.618Z,13.53
2017-09-29T12:59:50.002Z,14.43
2017-09-29T13:04:53.676Z,18.40
2017-09-29T13:09:56.382Z,16.33
2017-09-29T13:14:58.982Z,10.90
2017-09-29T13:20:01.786Z,9.77
2017-09-29T13:25:23.680Z,18.90
2017-09-29T13:30:26.285Z,13.83
2017-09-29T13:35:28.952Z,11.40
2017-09-29T13:40:31.705Z,10.83
2017-09-29T13:45:34.187Z,9.20
2017-09-29T13:50:36.747Z,11.50
2017-09-29T13:55:39.372Z,10.83
2017-09-29T14:00:42.068Z,8.73
2017-09-29T14:05:44.559Z,15.27
2017-09-29T14:10:47.014Z,10.83
2017-09-29T14:15:49.648Z,8.70
2017-09-29T14:20:51.689Z,18.00
2017-09-29T14:25:54.002Z,7.90
2017-09-29T14:30:56.548Z,6.53
2017-09-29T14:36:00.217Z,7.70
2017-09-29T14:41:09.387Z,10.40
2017-09-29T14:46:12.459Z,8.57
2017-09-29T14:51:15.121Z,12.93
2017-09-29T14:56:17.484Z,12.93
2017-09-29T15:01:20.121Z,12.37
2017-09-29T15:06:23.494Z,8.10
2017-09-29T15:11:26.954Z,11.90
2017-09-29T15:16:29.605Z,13.83
2017-09-29T15:21:31.806Z,7.83
2017-09-29T15:26:34.074Z,8.70
2017-09-29T15:31:36.440Z,8.50
2017-09-29T15:36:39.658Z,16.63
2017-09-29T15:41:44.131Z,11.90
2017-09-29T15:46:46.255Z,19.53
2017-09-29T15:51:48.924Z,11.60
2017-09-29T15:56:51.092Z,16.17
2017-09-29T16:01:54.472Z,17.23
2017-09-29T16:06:57.327Z,9.30
2017-09-29T16:12:00.637Z,12.77
2017-09-29T16:17:03.284Z,9.97
2017-09-29T16:22:07.123Z,14.87
2017-09-29T16:27:09.469Z,10.30
2017-09-29T16:32:12.110Z,10.23
2017-09-29T16:37:14.365Z,12.90
2017-09-29T16:42:17.004Z,10.67
2017-09-29T16:47:19.482Z,15.03
2017-09-29T16:52:22.133Z,17.47
2017-09-29T16:57:25.596Z,19.90
2017-09-29T17:02:31.039Z,18.37
2017-09-29T17:07:35.235Z,26.13
2017-09-29T17:12:39.897Z,20.40
2017-09-29T17:17:43.467Z,12.80
2017-09-29T17:22:46.009Z,22.67
2017-09-29T17:27:50.061Z,20.70
2017-09-29T17:32:52.482Z,21.80
2017-09-29T17:37:55.125Z,18.90
2017-09-29T17:42:57.858Z,16.70
2017-09-29T17:48:00.461Z,13.20
2017-09-29T17:53:03.042Z,15.77
2017-09-29T17:58:05.708Z,14.80
2017-09-29T18:03:08.338Z,17.33
2017-09-29T18:08:11.499Z,13.90
2017-09-29T18:13:13.908Z,15.53
2017-09-29T18:18:16.001Z,18.50
2017-09-29T18:23:19.297Z,16.87
2017-09-29T18:28:21.978Z,18.17
2017-09-29T18:33:24.459Z,20.33
2017-09-29T18:38:27.380Z,24.77
2017-09-29T18:43:35.464Z,26.13
2017-09-29T18:48:38.773Z,17.30
2017-09-29T18:53:41.422Z,21.57
2017-09-29T18:58:47.991Z,26.47
2017-09-29T19:03:53.856Z,17.63
2017-09-29T19:08:57.894Z,18.13
2017-09-29T19:14:03.056Z,24.77
2017-09-29T19:19:07.686Z,19.10
2017-09-29T19:24:13.080Z,29.10
2017-09-29T19:29:17.126Z,34.67
2017-09-29T19:34:22.747Z,34.23
2017-09-29T19:39:28.509Z,33.00
2017-09-29T19:44:34.484Z,39.13
2017-09-29T19:49:38.788Z,36.67
2017-09-29T19:54:41.588Z,26.30
2017-09-29T19:59:44.987Z,26.97
2017-09-29T20:04:48.874Z,37.37
2017-09-29T20:09:56.786Z,53.20
2017-09-29T20:15:02.757Z,40.07
2017-09-29T20:20:06.222Z,24.10
2017-09-29T20:25:11.104Z,32.67
2017-09-29T20:30:18.568Z,37.53
2017-09-29T20:35:26.804Z,22.13
2017-09-29T20:40:33.108Z,21.70
2017-09-29T20:45:37.733Z,25.67
2017-09-29T20:50:41.830Z,28.00
2017-09-29T20:55:46.184Z,18.57
2017-09-29T21:00:50.703Z,17.00
2017-09-29T21:05:54.508Z,21.47
2017-09-29T21:11:01.472Z,19.00
2017-09-29T21:16:09.331Z,25.53
2017-09-29T21:21:15.262Z,21.23
2017-09-29T21:26:24.409Z,31.40
2017-09-29T21:31:30.871Z,19.67
2017-09-29T21:36:36.889Z,16.43
2017-09-29T21:41:44.337Z,18.80
2017-09-29T21:46:51.697Z,22.43
2017-09-29T21:51:55.305Z,16.87
2017-09-29T21:57:01.357Z,16.03
2017-09-29T22:02:07.905Z,16.20
2017-09-29T22:07:12.411Z,16.87
2017-09-29T22:12:16.449Z,20.33
2017-09-29T22:17:23.480Z,20.80
2017-09-29T22:22:27.760Z,18.73
2017-09-29T22:27:34.437Z,21.07
2017-09-29T22:32:43.209Z,19.53
2017-09-29T22:37:47.363Z,18.90
2017-09-29T22:42:56.606Z,25.67
2017-09-29T22:48:06.392Z,18.17
2017-09-29T22:53:09.566Z,20.07
2017-09-29T22:58:17.592Z,24.13
2017-09-29T23:03:26.651Z,21.73
2017-09-29T23:08:30.344Z,16.30
2017-09-29T23:13:33.523Z,22.37
2017-09-29T23:18:40.804Z,18.27
2017-09-29T23:23:44.089Z,24.50
2017-09-29T23:28:50.813Z,17.10
2017-09-29T23:33:57.160Z,19.47
2017-09-29T23:39:05.326Z,20.10
2017-09-29T23:44:08.492Z,22.03
2017-09-29T23:49:15.045Z,19.37
2017-09-29T23:54:23.803Z,21.80
2017-09-29T23:59:28.708Z,24.13
